Time;durP1;ratioP1;P1;durP2;ratioP2;P2;SDS_P1;SDS_P2;PMS_P1;PMS_P2;Temp;Humidity;BMP_temperature;BMP_pressure;BME280_temperature;BME280_humidity;BME280_pressure;Samples;Min_cycle;Max_cycle;Signal;HPM_P1;HPM_P2
2023/12/29 00:01:13;;;;;;;5.60;3.10;;;;;;;9.00;100.00;96417.09;5036495;28;20240;-68
2023/12/29 00:03:41;;;;;;;5.27;2.60;;;;;;;9.35;100.00;96422.03;5035905;28;20220;-68
2023/12/29 00:06:08;;;;;;;7.73;2.63;;;;;;;9.16;100.00;96419.72;5035602;28;20697;-68
2023/12/29 00:08:34;;;;;;;4.00;2.30;;;;;;;9.06;100.00;96419.06;5036381;28;20777;-68
2023/12/29 00:11:01;;;;;;;3.83;1.93;;;;;;;9.10;100.00;96418.56;5036726;28;20577;-68
2023/12/29 00:13:27;;;;;;;3.80;2.20;;;;;;;9.14;100.00;96405.94;5034734;28;20240;-67
2023/12/29 00:15:55;;;;;;;4.63;2.63;;;;;;;9.13;100.00;96401.66;5036745;28;20201;-68
2023/12/29 00:18:21;;;;;;;7.17;2.80;;;;;;;9.19;100.00;96401.00;5036376;28;20220;-68
2023/12/29 00:20:50;;;;;;;4.80;2.17;;;;;;;9.24;100.00;96401.31;5035912;28;20209;-68
2023/12/29 00:23:16;;;;;;;5.10;2.20;;;;;;;8.97;100.00;96406.88;5035087;28;20229;-67
2023/12/29 00:25:43;;;;;;;4.27;2.30;;;;;;;9.01;100.00;96405.56;5036354;28;20212;-68
2023/12/29 00:28:09;;;;;;;7.37;2.50;;;;;;;8.98;100.00;96395.41;5035855;28;20266;-68
2023/12/29 00:30:39;;;;;;;5.70;2.60;;;;;;;9.26;100.00;96409.88;5036345;28;20209;-68
2023/12/29 00:33:05;;;;;;;4.23;2.27;;;;;;;9.02;100.00;96390.66;5035396;28;20240;-68
2023/12/29 00:35:32;;;;;;;4.67;2.30;;;;;;;8.94;100.00;96386.19;5035389;28;20709;-68
2023/12/29 00:38:00;;;;;;;4.50;2.40;;;;;;;9.08;100.00;96385.56;5036021;28;20205;-68
2023/12/29 00:40:26;;;;;;;5.00;2.57;;;;;;;8.88;100.00;96386.84;5035826;28;20204;-68
2023/12/29 00:42:53;;;;;;;6.07;2.70;;;;;;;8.80;100.00;96378.16;5035874;28;20231;-68
2023/12/29 00:45:21;;;;;;;3.63;2.23;;;;;;;8.60;100.00;96374.16;5035988;28;20201;-68
2023/12/29 00:47:48;;;;;;;2.87;2.30;;;;;;;8.64;100.00;96378.13;5035479;28;20206;-67
2023/12/29 00:50:14;;;;;;;4.00;2.70;;;;;;;8.55;100.00;96376.47;5035186;28;20216;-68
2023/12/29 00:52:41;;;;;;;3.63;2.27;;;;;;;8.64;100.00;96371.06;5035547;28;20232;-68
2023/12/29 00:55:09;;;;;;;4.73;2.23;;;;;;;8.51;100.00;96369.88;5036700;28;20236;-68
2023/12/29 00:57:36;;;;;;;6.20;2.73;;;;;;;8.33;100.00;96371.00;5036047;28;20236;-68
2023/12/29 01:00:02;;;;;;;5.53;2.90;;;;;;;8.52;100.00;96371.53;5036120;28;20209;-68
2023/12/29 01:02:29;;;;;;;4.13;2.67;;;;;;;8.59;100.00;96369.91;5034992;28;20217;-68
2023/12/29 01:04:55;;;;;;;3.67;2.23;;;;;;;8.36;100.00;96381.97;5035433;28;20205;-68
2023/12/29 01:07:22;;;;;;;6.73;2.83;;;;;;;8.52;100.00;96377.59;5035201;28;20209;-68
2023/12/29 01:09:48;;;;;;;7.77;2.90;;;;;;;8.49;100.00;96388.44;5039985;28;20209;-68
2023/12/29 01:12:16;;;;;;;5.27;2.47;;;;;;;8.68;100.00;96385.53;5037841;28;20362;-68
2023/12/29 01:14:42;;;;;;;9.07;3.07;;;;;;;8.61;100.00;96386.31;5039417;28;20229;-68
2023/12/29 01:17:09;;;;;;;6.13;3.03;;;;;;;8.60;100.00;96376.78;5039600;28;20212;-68
2023/12/29 01:19:35;;;;;;;4.70;2.20;;;;;;;8.73;100.00;96385.03;5038940;28;20213;-68
2023/12/29 01:22:02;;;;;;;5.13;2.63;;;;;;;8.60;100.00;96379.41;5039339;28;20208;-67
2023/12/29 01:24:28;;;;;;;5.77;2.70;;;;;;;8.67;100.00;96378.63;5039631;28;20225;-68
2023/12/29 01:26:55;;;;;;;5.23;3.20;;;;;;;8.63;100.00;96373.84;5038574;28;20766;-68
2023/12/29 01:29:23;;;;;;;6.70;2.80;;;;;;;8.56;100.00;96364.97;5038425;28;20235;-68
2023/12/29 01:31:49;;;;;;;9.90;3.40;;;;;;;8.48;100.00;96355.28;5039534;28;20209;-67
2023/12/29 01:34:16;;;;;;;4.80;2.50;;;;;;;8.43;100.00;96345.44;5038904;28;20232;-68
2023/12/29 01:36:42;;;;;;;9.17;3.20;;;;;;;8.48;100.00;96351.00;5038480;28;21055;-68
2023/12/29 01:39:09;;;;;;;5.13;2.63;;;;;;;8.58;100.00;96350.69;5039550;28;20234;-68
2023/12/29 01:41:35;;;;;;;6.17;2.53;;;;;;;8.58;100.00;96360.41;5038085;28;20300;-68
2023/12/29 01:44:19;;;;;;;4.67;2.73;;;;;;;8.78;100.00;96344.16;5039058;28;20761;-68
2023/12/29 01:46:49;;;;;;;4.37;2.90;;;;;;;8.74;100.00;96358.59;5038150;28;20224;-67
2023/12/29 01:49:17;;;;;;;4.90;2.63;;;;;;;8.74;100.00;96361.22;5037926;28;20766;-68
2023/12/29 01:51:45;;;;;;;6.50;3.00;;;;;;;8.74;100.00;96357.78;5037980;28;20250;-68
2023/12/29 01:54:13;;;;;;;6.07;3.13;;;;;;;8.62;100.00;96362.53;5038557;28;20710;-67
2023/12/29 01:56:41;;;;;;;5.43;3.17;;;;;;;8.85;100.00;96358.28;5037791;28;20201;-68
2023/12/29 01:59:07;;;;;;;8.50;3.40;;;;;;;8.72;100.00;96357.94;5038968;28;20212;-68
2023/12/29 02:01:35;;;;;;;5.53;2.70;;;;;;;8.55;100.00;96360.69;5037488;28;20743;-68
2023/12/29 02:04:03;;;;;;;6.00;2.80;;;;;;;8.70;100.00;96365.16;5038217;28;20221;-68
2023/12/29 02:06:30;;;;;;;5.70;2.83;;;;;;;8.68;100.00;96367.13;5038183;28;20205;-68
2023/12/29 02:08:57;;;;;;;5.83;3.03;;;;;;;8.69;100.00;96368.78;5038222;28;20205;-67
2023/12/29 02:11:24;;;;;;;4.97;2.97;;;;;;;8.62;100.00;96362.53;5038267;28;20292;-68
2023/12/29 02:13:51;;;;;;;5.07;2.50;;;;;;;8.68;100.00;96358.41;5037576;28;20228;-68
2023/12/29 02:16:22;;;;;;;11.27;3.77;;;;;;;8.79;100.00;96358.91;5037800;28;20221;-68
2023/12/29 02:18:51;;;;;;;5.53;3.03;;;;;;;9.04;100.00;96357.97;5037473;28;20202;-68
2023/12/29 02:21:24;;;;;;;6.63;3.03;;;;;;;9.08;100.00;96353.19;5037939;28;20205;-67
2023/12/29 02:23:50;;;;;;;8.50;2.80;;;;;;;8.74;100.00;96339.38;5037026;28;20723;-68
2023/12/29 02:26:23;;;;;;;6.20;2.90;;;;;;;9.01;100.00;96337.25;5037525;28;20224;-68
2023/12/29 02:28:56;;;;;;;3.53;2.40;;;;;;;9.12;100.00;96329.84;5038803;28;20209;-68
2023/12/29 02:31:26;;;;;;;7.53;3.30;;;;;;;8.82;100.00;96327.09;5037325;28;20224;-68
2023/12/29 02:33:53;;;;;;;8.10;2.70;;;;;;;8.83;100.00;96327.91;5037357;28;20232;-68
2023/12/29 02:36:23;;;;;;;5.83;3.13;;;;;;;8.88;100.00;96321.16;5038409;28;20607;-67
2023/12/29 02:38:49;;;;;;;5.47;2.80;;;;;;;8.70;100.00;96319.69;5037879;28;20205;-68
2023/12/29 02:41:16;;;;;;;7.27;3.50;;;;;;;8.75;100.00;96320.00;5037233;28;20571;-68
2023/12/29 02:43:44;;;;;;;4.47;2.57;;;;;;;8.82;100.00;96315.72;5037425;28;20605;-68
2023/12/29 02:46:10;;;;;;;5.77;3.13;;;;;;;8.75;100.00;96318.19;5037360;28;20207;-68
2023/12/29 02:48:37;;;;;;;5.23;3.10;;;;;;;8.60;100.00;96322.47;5037871;28;20205;-68
2023/12/29 02:51:03;;;;;;;5.20;2.77;;;;;;;8.82;100.00;96323.63;5037454;28;20202;-68
2023/12/29 02:53:30;;;;;;;9.17;3.40;;;;;;;8.67;100.00;96315.56;5037314;28;20216;-68
2023/12/29 02:55:56;;;;;;;6.63;3.67;;;;;;;8.64;100.00;96312.44;5036959;28;20221;-67
2023/12/29 02:58:23;;;;;;;5.30;3.00;;;;;;;8.81;100.00;96314.94;5037528;28;20205;-68
2023/12/29 03:00:51;;;;;;;7.17;3.03;;;;;;;9.04;100.00;96315.06;5037367;28;20229;-68
2023/12/29 03:03:17;;;;;;;5.90;3.50;;;;;;;8.59;100.00;96307.69;5036771;28;20225;-68
2023/12/29 03:05:43;;;;;;;6.10;2.83;;;;;;;8.63;100.00;96310.78;5037054;28;20659;-68
2023/12/29 03:08:10;;;;;;;5.47;3.00;;;;;;;8.53;100.00;96316.22;5037179;28;20197;-67
2023/12/29 03:10:36;;;;;;;7.77;3.63;;;;;;;8.67;100.00;96318.19;5037007;28;20205;-68
2023/12/29 03:13:04;;;;;;;6.20;3.10;;;;;;;8.44;100.00;96300.63;5036685;28;20228;-68
2023/12/29 03:15:30;;;;;;;7.13;3.10;;;;;;;8.65;100.00;96308.84;5035448;28;20664;-67
2023/12/29 03:17:58;;;;;;;6.63;3.03;;;;;;;8.72;100.00;96305.41;5037105;28;20197;-67
2023/12/29 03:20:24;;;;;;;7.40;3.40;;;;;;;8.68;100.00;96309.34;5037602;28;20205;-67
2023/12/29 03:22:51;;;;;;;7.77;3.57;;;;;;;8.52;100.00;96292.75;5036278;28;20258;-68
2023/12/29 03:25:17;;;;;;;7.70;3.40;;;;;;;8.62;100.00;96294.22;5036903;28;20209;-68
2023/12/29 03:27:44;;;;;;;6.23;3.03;;;;;;;8.56;100.00;96289.63;5037038;28;21312;-68
2023/12/29 03:30:11;;;;;;;6.47;2.97;;;;;;;8.69;100.00;96292.59;5036147;28;20201;-68
2023/12/29 03:32:38;;;;;;;5.00;2.93;;;;;;;8.33;100.00;96303.56;5036604;28;20202;-68
2023/12/29 03:35:06;;;;;;;6.17;3.17;;;;;;;8.58;100.00;96295.53;5037141;28;20240;-68
2023/12/29 03:37:33;;;;;;;5.57;3.20;;;;;;;8.38;100.00;96287.34;5036649;28;20225;-67
2023/12/29 03:39:59;;;;;;;7.90;3.20;;;;;;;8.41;100.00;96274.69;5036346;28;20206;-68
2023/12/29 03:42:26;;;;;;;10.30;3.77;;;;;;;8.46;100.00;96279.47;5036450;28;20209;-68
2023/12/29 03:44:52;;;;;;;4.57;2.70;;;;;;;8.40;100.00;96278.31;5036707;28;20201;-67
2023/12/29 03:47:19;;;;;;;8.73;3.03;;;;;;;8.43;100.00;96275.34;5036146;28;20201;-67
2023/12/29 03:49:45;;;;;;;6.93;3.27;;;;;;;8.28;100.00;96276.97;5036647;28;20267;-68
2023/12/29 03:52:13;;;;;;;7.53;3.40;;;;;;;8.43;100.00;96283.22;5036596;28;20201;-67
2023/12/29 03:54:40;;;;;;;7.57;3.13;;;;;;;8.20;100.00;96273.53;5036503;28;20225;-68
2023/12/29 03:57:06;;;;;;;5.60;2.93;;;;;;;8.18;100.00;96270.22;5036568;28;20202;-68
2023/12/29 03:59:33;;;;;;;6.00;2.93;;;;;;;8.36;100.00;96271.72;5035465;28;20197;-67
2023/12/29 04:01:59;;;;;;;6.03;3.20;;;;;;;8.21;100.00;96272.50;5035844;28;20673;-67
2023/12/29 04:04:25;;;;;;;5.40;3.00;;;;;;;8.03;100.00;96270.00;5036512;28;20593;-67
2023/12/29 04:06:53;;;;;;;7.80;3.47;;;;;;;8.03;100.00;96271.78;5036054;28;20220;-67
2023/12/29 04:09:21;;;;;;;4.50;2.70;;;;;;;8.22;100.00;96279.41;5036534;28;20201;-68
2023/12/29 04:11:47;;;;;;;7.63;3.33;;;;;;;8.10;100.00;96270.19;5035063;28;20201;-67
2023/12/29 04:14:14;;;;;;;5.53;2.90;;;;;;;8.28;100.00;96273.53;5036467;28;20225;-67
2023/12/29 04:16:41;;;;;;;7.17;3.47;;;;;;;8.04;100.00;96273.44;5036532;28;20229;-68
2023/12/29 04:19:07;;;;;;;8.27;3.50;;;;;;;8.07;100.00;96270.50;5036373;28;20223;-67
2023/12/29 04:21:33;;;;;;;6.90;2.83;;;;;;;8.00;100.00;96261.63;5036096;28;20198;-68
2023/12/29 04:24:00;;;;;;;4.90;2.67;;;;;;;8.27;100.00;96261.38;5036711;28;20228;-68
2023/12/29 04:26:28;;;;;;;5.43;3.17;;;;;;;8.21;100.00;96262.84;5036828;28;20208;-68
2023/12/29 04:28:54;;;;;;;6.70;2.87;;;;;;;8.08;100.00;96262.47;5035807;28;20292;-68
2023/12/29 04:31:21;;;;;;;5.13;2.90;;;;;;;8.22;100.00;96253.16;5036761;28;20734;-68
2023/12/29 04:33:47;;;;;;;6.83;3.27;;;;;;;8.19;100.00;96253.50;5035850;28;20599;-68
2023/12/29 04:36:13;;;;;;;6.23;2.83;;;;;;;8.31;100.00;96252.19;5036252;28;20662;-68
2023/12/29 04:38:40;;;;;;;4.73;2.80;;;;;;;8.09;100.00;96231.78;5035827;28;20205;-67
2023/12/29 04:41:07;;;;;;;4.83;3.07;;;;;;;8.27;100.00;96254.31;5036349;28;20439;-67
2023/12/29 04:43:35;;;;;;;5.23;2.80;;;;;;;8.38;100.00;96253.19;5039265;28;20224;-67
2023/12/29 04:46:01;;;;;;;7.10;2.47;;;;;;;8.24;100.00;96259.09;5040381;28;20197;-67
2023/12/29 04:48:27;;;;;;;6.47;3.03;;;;;;;8.32;100.00;96261.72;5040397;28;20205;-67
2023/12/29 04:50:54;;;;;;;6.13;3.10;;;;;;;8.22;100.00;96263.66;5039634;28;20226;-68
2023/12/29 04:53:20;;;;;;;6.63;2.87;;;;;;;8.17;100.00;96271.19;5039562;28;20217;-67
2023/12/29 04:55:47;;;;;;;6.07;3.07;;;;;;;8.40;100.00;96265.19;5039703;28;20225;-67
2023/12/29 04:58:14;;;;;;;7.13;3.07;;;;;;;8.36;100.00;96263.03;5039822;28;20205;-68
2023/12/29 05:00:42;;;;;;;5.67;2.77;;;;;;;8.57;100.00;96275.50;5039433;28;20205;-68
2023/12/29 05:03:08;;;;;;;7.10;3.00;;;;;;;8.49;100.00;96286.03;5039782;28;20740;-68
2023/12/29 05:05:34;;;;;;;5.57;2.80;;;;;;;8.48;100.00;96289.63;5039136;28;20571;-68
2023/12/29 05:08:01;;;;;;;5.93;2.53;;;;;;;8.48;100.00;96285.34;5039333;28;20201;-68
2023/12/29 05:10:27;;;;;;;8.73;2.63;;;;;;;8.35;100.00;96293.72;5039194;28;20212;-68
2023/12/29 05:12:54;;;;;;;6.57;2.97;;;;;;;8.28;100.00;96295.34;5038841;28;20221;-67
2023/12/29 05:15:20;;;;;;;9.23;3.50;;;;;;;8.43;100.00;96295.53;5039572;28;20228;-67
2023/12/29 05:17:48;;;;;;;5.83;2.47;;;;;;;8.54;100.00;96296.84;5039543;28;20232;-68
2023/12/29 05:20:15;;;;;;;5.87;3.07;;;;;;;8.50;100.00;96303.41;5039272;28;20205;-68
2023/12/29 05:22:41;;;;;;;6.40;3.27;;;;;;;8.38;100.00;96310.97;5038328;28;20213;-67
2023/12/29 05:25:08;;;;;;;6.37;3.13;;;;;;;8.61;100.00;96318.03;5039892;28;20197;-68
2023/12/29 05:27:35;;;;;;;4.93;2.77;;;;;;;8.44;100.00;96316.38;5038779;28;20213;-68
2023/12/29 05:30:02;;;;;;;5.80;2.97;;;;;;;8.31;100.00;96313.41;5038864;28;20201;-68
2023/12/29 05:32:28;;;;;;;5.87;3.03;;;;;;;8.37;100.00;96311.94;5038619;28;20201;-67
2023/12/29 05:34:56;;;;;;;5.83;2.93;;;;;;;8.56;100.00;96294.06;5039410;28;20205;-67
2023/12/29 05:37:22;;;;;;;6.33;2.70;;;;;;;8.36;100.00;96284.03;5038786;28;20209;-68
2023/12/29 05:39:49;;;;;;;5.80;2.70;;;;;;;8.27;100.00;96287.63;5038631;28;21072;-68
2023/12/29 05:42:15;;;;;;;5.43;2.90;;;;;;;8.11;100.00;96279.72;5039148;28;20220;-67
2023/12/29 05:44:42;;;;;;;5.13;2.43;;;;;;;8.19;100.00;96285.81;5038290;28;20225;-67
2023/12/29 05:47:08;;;;;;;10.40;4.80;;;;;;;7.95;100.00;96279.66;5039017;28;20193;-67
2023/12/29 05:49:39;;;;;;;9.87;3.90;;;;;;;7.95;100.00;96272.59;5038746;28;20204;-67
2023/12/29 05:52:07;;;;;;;6.33;3.23;;;;;;;8.01;100.00;96276.41;5038596;28;20228;-67
2023/12/29 05:54:34;;;;;;;5.40;3.67;;;;;;;8.01;100.00;96271.16;5038778;28;20217;-68
2023/12/29 05:57:01;;;;;;;6.93;3.30;;;;;;;7.77;100.00;96273.69;5038451;28;20223;-68
2023/12/29 05:59:27;;;;;;;6.93;2.63;;;;;;;7.98;100.00;96281.94;5038216;28;20206;-68
2023/12/29 06:01:54;;;;;;;7.00;3.10;;;;;;;8.10;100.00;96275.44;5038853;28;20279;-68
2023/12/29 06:04:20;;;;;;;5.57;3.33;;;;;;;7.85;100.00;96284.22;5038827;28;20228;-67
2023/12/29 06:06:47;;;;;;;7.20;3.53;;;;;;;8.01;100.00;96279.03;5038267;28;20205;-67
2023/12/29 06:09:14;;;;;;;9.47;4.40;;;;;;;8.22;100.00;96274.16;5039345;28;20284;-67
2023/12/29 06:11:41;;;;;;;8.97;3.43;;;;;;;8.20;100.00;96278.78;5037012;28;20220;-68
2023/12/29 06:14:07;;;;;;;7.60;3.93;;;;;;;7.93;100.00;96269.31;5038533;28;20236;-67
2023/12/29 06:16:34;;;;;;;6.03;3.30;;;;;;;7.89;100.00;96275.03;5038253;28;20228;-67
2023/12/29 06:19:00;;;;;;;9.13;3.63;;;;;;;7.99;100.00;96281.81;5038585;28;20209;-67
2023/12/29 06:21:27;;;;;;;8.60;3.70;;;;;;;8.19;100.00;96280.56;5038093;28;20202;-67
2023/12/29 06:23:53;;;;;;;6.47;3.10;;;;;;;8.06;100.00;96287.25;5038020;28;20624;-67
2023/12/29 06:26:22;;;;;;;9.77;3.43;;;;;;;8.26;100.00;96283.34;5038338;28;20219;-67
2023/12/29 06:28:49;;;;;;;6.43;2.93;;;;;;;8.37;100.00;96288.31;5037314;28;20248;-68
2023/12/29 06:31:18;;;;;;;5.63;3.27;;;;;;;8.59;100.00;96281.44;5038500;28;20236;-68
2023/12/29 06:33:44;;;;;;;6.37;2.77;;;;;;;8.39;100.00;96288.94;5037724;28;20224;-68
2023/12/29 06:36:11;;;;;;;7.80;3.37;;;;;;;8.25;100.00;96289.59;5037682;28;20247;-68
2023/12/29 06:38:38;;;;;;;7.37;2.70;;;;;;;8.37;100.00;96285.69;5036519;28;20693;-68
2023/12/29 06:41:05;;;;;;;5.50;2.67;;;;;;;8.39;100.00;96291.56;5037943;28;20205;-68
2023/12/29 06:43:33;;;;;;;5.97;2.70;;;;;;;8.55;100.00;96290.63;5036654;28;20680;-68
2023/12/29 06:45:59;;;;;;;6.67;3.50;;;;;;;8.48;100.00;96280.09;5037119;28;20197;-68
2023/12/29 06:48:25;;;;;;;6.47;2.53;;;;;;;8.47;100.00;96288.97;5038221;28;20549;-68
2023/12/29 06:50:52;;;;;;;5.03;2.83;;;;;;;8.54;100.00;96296.84;5037148;28;20208;-68
2023/12/29 06:53:18;;;;;;;6.33;2.77;;;;;;;8.59;100.00;96299.81;5037077;28;20236;-67
2023/12/29 06:55:45;;;;;;;6.50;2.80;;;;;;;8.63;100.00;96300.28;5036837;28;20232;-68
2023/12/29 06:58:11;;;;;;;7.63;3.27;;;;;;;8.74;100.00;96303.41;5037061;28;20208;-68
2023/12/29 07:00:39;;;;;;;6.10;3.17;;;;;;;9.05;100.00;96293.91;5037540;28;20251;-68
2023/12/29 07:03:05;;;;;;;13.47;4.33;;;;;;;8.83;100.00;96301.63;5037459;28;20240;-68
2023/12/29 07:05:32;;;;;;;15.67;5.60;;;;;;;9.09;100.00;96303.09;5035660;28;20713;-68
2023/12/29 07:07:59;;;;;;;38.60;9.50;;;;;;;8.83;100.00;96297.19;5038071;28;21256;-68
2023/12/29 07:10:25;;;;;;;70.93;19.23;;;;;;;9.00;100.00;96303.25;5036748;28;20205;-68
2023/12/29 07:12:52;;;;;;;36.67;8.70;;;;;;;8.95;100.00;96306.38;5036235;28;20228;-67
2023/12/29 07:15:18;;;;;;;47.83;13.23;;;;;;;9.16;100.00;96299.63;5037651;28;20204;-68
2023/12/29 07:17:46;;;;;;;49.13;15.80;;;;;;;9.22;100.00;96304.19;5036565;28;20703;-68
2023/12/29 07:20:13;;;;;;;32.17;9.43;;;;;;;9.05;100.00;96296.53;5037059;28;20197;-68
2023/12/29 07:22:39;;;;;;;29.63;8.27;;;;;;;8.87;100.00;96289.78;5036329;28;20208;-68
2023/12/29 07:25:06;;;;;;;17.50;6.77;;;;;;;8.84;100.00;96300.63;5037107;28;20208;-68
2023/12/29 07:27:33;;;;;;;28.80;8.57;;;;;;;8.98;100.00;96303.41;5036210;28;20197;-68
2023/12/29 07:29:59;;;;;;;27.67;8.97;;;;;;;8.96;100.00;96300.16;5036859;28;20216;-68
2023/12/29 07:32:26;;;;;;;21.20;7.23;;;;;;;8.98;100.00;96311.31;5036472;28;20561;-68
2023/12/29 07:34:53;;;;;;;13.57;7.13;;;;;;;8.88;100.00;96305.38;5036705;28;20575;-68
2023/12/29 07:37:20;;;;;;;6.50;3.83;;;;;;;8.94;100.00;96298.66;5036540;28;20225;-68
2023/12/29 07:39:47;;;;;;;34.47;11.37;;;;;;;8.92;100.00;96306.69;5036279;28;20216;-68
2023/12/29 07:42:16;;;;;;;50.97;12.93;;;;;;;8.74;100.00;96298.16;5036257;28;20216;-68
2023/12/29 07:44:43;;;;;;;41.43;10.50;;;;;;;8.90;100.00;96292.09;5036031;28;20236;-68
2023/12/29 07:47:10;;;;;;;33.40;10.60;;;;;;;8.75;100.00;96294.56;5037281;28;20216;-68
2023/12/29 07:49:36;;;;;;;15.40;6.03;;;;;;;8.66;100.00;96294.72;5036059;28;20200;-68
2023/12/29 07:52:05;;;;;;;26.60;9.80;;;;;;;9.08;100.00;96309.31;5036786;28;20205;-68
2023/12/29 07:54:31;;;;;;;23.70;6.67;;;;;;;8.93;100.00;96308.34;5035993;28;20221;-68
2023/12/29 07:56:58;;;;;;;16.63;7.57;;;;;;;8.92;100.00;96305.88;5035419;28;20234;-68
2023/12/29 07:59:24;;;;;;;11.13;3.50;;;;;;;8.91;100.00;96312.97;5037264;28;20208;-68
2023/12/29 08:01:51;;;;;;;7.27;2.40;;;;;;;8.94;100.00;96319.69;5036701;28;20216;-68
2023/12/29 08:04:17;;;;;;;10.83;4.30;;;;;;;9.01;100.00;96316.22;5036023;28;20582;-68
2023/12/29 08:06:44;;;;;;;8.97;5.43;;;;;;;9.14;100.00;96321.81;5035455;28;20323;-68
2023/12/29 08:09:12;;;;;;;8.07;3.17;;;;;;;9.21;100.00;96322.78;5037093;28;20197;-68
2023/12/29 08:11:39;;;;;;;12.67;4.73;;;;;;;9.08;100.00;96333.78;5035175;28;20205;-68
2023/12/29 08:14:07;;;;;;;5.17;2.30;;;;;;;9.14;100.00;96342.84;5036221;28;20231;-68
2023/12/29 08:16:39;;;;;;;9.43;4.27;;;;;;;9.09;100.00;96332.00;5037575;28;20615;-68
2023/12/29 08:19:06;;;;;;;9.03;3.17;;;;;;;9.17;100.00;96332.00;5042544;28;20201;-68
2023/12/29 08:21:33;;;;;;;6.27;2.63;;;;;;;9.24;100.00;96338.22;5042785;28;20299;-68
2023/12/29 08:23:59;;;;;;;8.17;3.40;;;;;;;9.18;100.00;96336.25;5042398;28;20217;-68
2023/12/29 08:26:27;;;;;;;7.20;2.90;;;;;;;9.43;100.00;96338.69;5042599;28;20201;-68
2023/12/29 08:28:54;;;;;;;6.27;2.80;;;;;;;9.28;100.00;96335.09;5042119;28;21272;-68
2023/12/29 08:31:20;;;;;;;3.67;2.63;;;;;;;9.12;100.00;96337.72;5043316;28;20201;-68
2023/12/29 08:33:47;;;;;;;3.20;2.07;;;;;;;9.27;100.00;96340.53;5041412;28;20224;-68
2023/12/29 08:36:13;;;;;;;6.97;2.67;;;;;;;9.45;100.00;96338.53;5042521;28;20600;-68
2023/12/29 08:38:40;;;;;;;4.40;2.20;;;;;;;9.43;100.00;96337.84;5038139;28;20674;-68
2023/12/29 08:41:06;;;;;;;6.13;2.67;;;;;;;9.43;100.00;96337.84;5038493;28;20205;-68
2023/12/29 08:43:36;;;;;;;7.27;2.60;;;;;;;9.67;100.00;96328.09;5040794;28;20804;-68
2023/12/29 08:46:02;;;;;;;5.80;2.97;;;;;;;9.65;100.00;96343.25;5041481;28;21021;-68
2023/12/29 08:48:30;;;;;;;3.93;2.23;;;;;;;9.44;100.00;96335.06;5041619;28;20766;-68
2023/12/29 08:50:57;;;;;;;7.13;1.97;;;;;;;9.64;100.00;96331.06;5041222;28;20204;-68
2023/12/29 08:53:23;;;;;;;4.53;2.40;;;;;;;9.77;100.00;96321.63;5041260;28;20221;-68
2023/12/29 08:55:50;;;;;;;5.17;2.47;;;;;;;9.87;100.00;96335.41;5041470;28;20209;-68
2023/12/29 08:58:16;;;;;;;11.13;2.80;;;;;;;9.70;100.00;96320.69;5042048;28;20257;-68
2023/12/29 09:00:44;;;;;;;4.23;2.40;;;;;;;9.71;100.00;96317.06;5041644;28;20925;-68
2023/12/29 09:03:11;;;;;;;5.47;2.37;;;;;;;9.73;100.00;96322.16;5040669;28;21015;-69
2023/12/29 09:05:37;;;;;;;3.77;2.10;;;;;;;9.92;100.00;96311.25;5042039;28;20582;-68
2023/12/29 09:08:04;;;;;;;2.50;1.50;;;;;;;9.95;100.00;96303.81;5042685;28;20200;-68
2023/12/29 09:10:31;;;;;;;6.03;3.53;;;;;;;10.03;100.00;96310.88;5042804;28;20666;-68
2023/12/29 09:12:57;;;;;;;3.47;1.77;;;;;;;9.81;100.00;96322.13;5041824;28;20225;-68
2023/12/29 09:15:25;;;;;;;6.10;2.47;;;;;;;9.96;100.00;96323.09;5042376;28;20197;-68
2023/12/29 09:17:53;;;;;;;4.37;2.03;;;;;;;10.00;100.00;96322.56;5041674;28;20667;-68
2023/12/29 09:20:19;;;;;;;4.57;2.77;;;;;;;10.08;100.00;96335.72;5042262;28;20204;-68
2023/12/29 09:22:46;;;;;;;6.37;2.20;;;;;;;9.86;100.00;96331.16;5040975;28;20225;-68
2023/12/29 09:25:12;;;;;;;4.30;2.43;;;;;;;9.65;100.00;96334.50;5042633;28;20208;-68
2023/12/29 09:27:39;;;;;;;6.03;2.00;;;;;;;9.97;100.00;96338.72;5040888;28;20328;-68
2023/12/29 09:30:07;;;;;;;4.17;2.80;;;;;;;10.32;100.00;96333.78;5039263;28;20201;-68
2023/12/29 09:32:34;;;;;;;5.77;2.87;;;;;;;10.10;100.00;96333.72;5038250;28;20201;-68
2023/12/29 09:35:03;;;;;;;7.43;3.13;;;;;;;10.75;100.00;96335.78;5038743;28;20572;-68
2023/12/29 09:37:29;;;;;;;5.30;2.90;;;;;;;10.51;100.00;96337.78;5037858;28;20343;-68
2023/12/29 09:39:56;;;;;;;4.67;1.90;;;;;;;10.48;100.00;96333.66;5039025;28;20201;-68
2023/12/29 09:42:23;;;;;;;5.47;2.60;;;;;;;10.77;100.00;96327.72;5038355;28;21012;-68
2023/12/29 09:44:51;;;;;;;4.70;1.93;;;;;;;10.65;100.00;96326.47;5038425;28;20205;-68
2023/12/29 09:47:22;;;;;;;4.83;2.30;;;;;;;11.04;100.00;96330.63;5038891;28;20233;-68
2023/12/29 09:49:50;;;;;;;4.93;2.60;;;;;;;11.16;100.00;96335.31;5038222;28;20302;-68
2023/12/29 09:52:19;;;;;;;4.70;2.53;;;;;;;10.90;100.00;96333.25;5038690;28;20202;-68
2023/12/29 09:54:46;;;;;;;2.70;2.00;;;;;;;10.85;100.00;96332.94;5038396;28;20228;-68
2023/12/29 09:57:12;;;;;;;4.33;2.50;;;;;;;10.92;100.00;96344.41;5038486;28;20221;-68
2023/12/29 09:59:41;;;;;;;4.83;2.40;;;;;;;10.78;100.00;96345.16;5038460;28;20231;-68
2023/12/29 10:02:13;;;;;;;3.27;1.40;;;;;;;11.20;100.00;96341.88;5038368;28;20228;-68
2023/12/29 10:04:40;;;;;;;4.73;2.23;;;;;;;11.00;100.00;96332.00;5037562;28;20229;-69
2023/12/29 10:07:08;;;;;;;2.70;1.20;;;;;;;10.77;100.00;96327.72;5038027;28;20201;-68
2023/12/29 10:09:38;;;;;;;6.10;2.53;;;;;;;11.28;100.00;96333.88;5038144;28;20221;-68
2023/12/29 10:12:09;;;;;;;5.40;2.67;;;;;;;11.35;100.00;96326.88;5037357;28;21077;-68
2023/12/29 10:14:42;;;;;;;3.53;1.80;;;;;;;11.15;100.00;96325.75;5038149;28;20256;-69
2023/12/29 10:17:18;;;;;;;3.33;2.00;;;;;;;11.37;100.00;96327.53;5038509;28;20240;-68
2023/12/29 10:19:57;;;;;;;3.83;1.90;;;;;;;11.41;100.00;96322.72;5037582;28;20200;-68
2023/12/29 10:22:31;;;;;;;4.33;2.63;;;;;;;11.77;100.00;96321.84;5036876;28;20207;-68
2023/12/29 10:24:59;;;;;;;6.07;2.00;;;;;;;11.69;100.00;96320.13;5038930;28;20209;-69
2023/12/29 10:27:26;;;;;;;8.37;2.63;;;;;;;11.35;100.00;96328.72;5038109;28;20204;-68
2023/12/29 10:29:53;;;;;;;4.73;2.67;;;;;;;11.21;100.00;96322.38;5034104;28;20213;-68
2023/12/29 10:32:20;;;;;;;3.40;1.93;;;;;;;11.22;100.00;96324.03;5036689;28;20227;-68
2023/12/29 10:34:46;;;;;;;4.67;2.70;;;;;;;11.15;100.00;96319.66;5036951;28;21047;-68
2023/12/29 10:37:19;;;;;;;4.37;2.57;;;;;;;11.21;100.00;96317.13;5036401;28;20582;-68
2023/12/29 10:39:57;;;;;;;3.10;1.90;;;;;;;11.37;100.00;96308.25;5037058;28;20298;-68
2023/12/29 10:42:24;;;;;;;3.17;1.80;;;;;;;11.23;100.00;96309.03;5036747;28;20197;-68
2023/12/29 10:45:05;;;;;;;2.47;1.70;;;;;;;11.21;100.00;96300.47;5036757;28;20296;-69
2023/12/29 10:47:32;;;;;;;2.47;1.60;;;;;;;10.95;100.00;96298.22;5037999;28;20208;-68
2023/12/29 10:50:00;;;;;;;5.00;2.40;;;;;;;11.20;100.00;96297.03;5037311;28;20216;-68
2023/12/29 10:52:27;;;;;;;4.03;1.87;;;;;;;11.08;100.00;96287.09;5036484;28;20217;-69
2023/12/29 10:55:05;;;;;;;4.73;1.50;;;;;;;11.16;100.00;96290.47;5036578;28;20209;-68
2023/12/29 10:57:33;;;;;;;4.37;2.30;;;;;;;11.22;100.00;96286.31;5036417;28;20217;-68
2023/12/29 11:00:01;;;;;;;2.60;2.03;;;;;;;10.89;100.00;96278.88;5035958;28;20217;-69
2023/12/29 11:02:27;;;;;;;5.93;2.00;;;;;;;10.91;100.00;96276.84;5035366;28;20738;-68
2023/12/29 11:05:03;;;;;;;7.20;3.00;;;;;;;11.32;100.00;96263.13;5034792;28;20205;-69
2023/12/29 11:07:36;;;;;;;5.53;2.73;;;;;;;11.33;100.00;96260.31;5035982;28;20204;-68
2023/12/29 11:10:03;;;;;;;4.63;2.23;;;;;;;11.33;100.00;96262.94;5035368;28;20212;-69
2023/12/29 11:12:33;;;;;;;5.20;2.00;;;;;;;11.47;100.00;96267.41;5035875;28;20205;-69
2023/12/29 11:15:02;;;;;;;4.77;2.30;;;;;;;11.66;100.00;96266.91;5035233;28;21116;-68
2023/12/29 11:17:30;;;;;;;7.90;2.40;;;;;;;11.64;100.00;96260.97;5036555;28;20225;-69
2023/12/29 11:19:59;;;;;;;6.23;1.80;;;;;;;11.49;100.00;96244.28;5036284;28;20212;-69
2023/12/29 11:22:28;;;;;;;3.97;1.47;;;;;;;11.63;100.00;96256.69;5035827;28;20201;-68
2023/12/29 11:24:55;;;;;;;3.10;1.80;;;;;;;11.71;100.00;96261.88;5035568;28;20212;-69
2023/12/29 11:27:23;;;;;;;1.57;1.27;;;;;;;11.57;100.00;96252.16;5036005;28;20197;-68
2023/12/29 11:29:51;;;;;;;3.77;2.00;;;;;;;11.91;100.00;96252.38;5037121;28;20740;-68
2023/12/29 11:32:23;;;;;;;4.50;2.20;;;;;;;12.12;100.00;96252.41;5036142;28;20201;-68